Terminal Aerodrome Forecast
Issued by NWS Louisville, KY

Home | Current Version | Previous Version | Text Only | Print | Product List | Glossary On
Versions: 1 2 3 4 5 6 7 8 9 10 11 12 13
000
FTUS43 KLMK 302320
TAFSDF
TAF
KSDF 302320Z 3100/0106 VRB04KT P6SM SCT050 SCT250
     FM311600 31007KT P6SM SCT040 SCT250 PROB30 3117/3123 VRB10G20KT
      3SM -TSRA BKN040CB
     FM010000 35008KT P6SM SCT040 BKN250=

USA.gov is the U.S. government's official web portal to all federal, state and local government web resources and services.